Time;durP1;ratioP1;P1;durP2;ratioP2;P2;SDS_P1;SDS_P2;PMS_P1;PMS_P2;Temp;Humidity;BMP_temperature;BMP_pressure;BME280_temperature;BME280_humidity;BME280_pressure;Samples;Min_cycle;Max_cycle;Signal;HPM_P1;HPM_P2
2022/11/07 05:00:21;;;;;;;1999.90;999.90;;;9.90;99.90;;;;;;6083387;22;20020;-79
2022/11/07 05:02:47;;;;;;;1999.90;999.90;;;10.00;99.90;;;;;;5017494;28;20054;-80
2022/11/07 05:05:14;;;;;;;1999.90;999.90;;;10.10;99.90;;;;;;5015622;28;20042;-79
2022/11/07 05:07:39;;;;;;;1999.90;999.90;;;10.10;99.90;;;;;;5015617;28;20033;-79
2022/11/07 05:10:07;;;;;;;1999.90;999.90;;;10.00;99.90;;;;;;5016192;28;20503;-79
2022/11/07 05:12:32;;;;;;;1999.90;999.90;;;9.90;99.90;;;;;;5018153;28;20038;-79
2022/11/07 05:14:58;;;;;;;1999.90;999.90;;;9.80;99.90;;;;;;5018242;28;20038;-79
2022/11/07 05:17:24;;;;;;;1999.90;999.90;;;9.80;99.90;;;;;;5018069;28;20038;-79
2022/11/07 05:19:50;;;;;;;1999.90;999.90;;;9.80;99.90;;;;;;5017115;28;20066;-79
2022/11/07 05:24:59;;;;;;;1999.90;999.90;;;9.70;99.90;;;;;;5018355;28;20089;-79
2022/11/07 05:27:25;;;;;;;1999.90;999.90;;;9.60;99.90;;;;;;5018510;28;20066;-79
2022/11/07 05:29:51;;;;;;;1999.90;999.90;;;9.50;99.90;;;;;;5018940;28;20041;-79
2022/11/07 05:32:17;;;;;;;1999.90;999.90;;;9.50;99.90;;;;;;5018039;28;20034;-79
2022/11/07 05:34:42;;;;;;;1999.90;999.90;;;9.40;99.90;;;;;;5018118;28;20034;-78
2022/11/07 05:37:09;;;;;;;1999.90;999.90;;;9.40;99.90;;;;;;5016904;28;20030;-78
2022/11/07 05:39:35;;;;;;;1999.90;999.90;;;9.40;99.90;;;;;;5017362;28;20050;-78
2022/11/07 05:42:01;;;;;;;1999.90;999.90;;;9.30;99.90;;;;;;5018764;28;20752;-79
2022/11/07 05:44:27;;;;;;;1999.90;999.90;;;9.30;99.90;;;;;;5019221;28;20075;-78
2022/11/07 05:46:52;;;;;;;1999.90;999.90;;;9.20;99.90;;;;;;5016715;28;20085;-79
2022/11/07 05:49:18;;;;;;;1999.90;999.90;;;9.10;99.90;;;;;;5018028;28;20030;-79
2022/11/07 05:51:43;;;;;;;1999.90;999.90;;;9.00;99.90;;;;;;5018549;28;20400;-79
2022/11/07 05:54:09;;;;;;;1999.90;999.90;;;9.00;99.90;;;;;;5017805;28;20030;-78
2022/11/07 05:56:36;;;;;;;1999.90;999.90;;;9.00;99.90;;;;;;5016703;28;20407;-79
2022/11/07 05:59:03;;;;;;;1999.90;999.90;;;9.00;99.90;;;;;;5019129;28;20842;-81
2022/11/07 06:01:29;;;;;;;1999.90;999.90;;;9.10;99.90;;;;;;5019098;28;20046;-79
2022/11/07 06:03:55;;;;;;;1999.90;999.90;;;9.10;99.90;;;;;;5019582;28;20038;-79
2022/11/07 06:06:20;;;;;;;1999.90;999.90;;;9.30;99.90;;;;;;5019309;28;20085;-78
2022/11/07 06:08:46;;;;;;;1999.90;999.90;;;9.30;99.90;;;;;;5020363;28;20392;-79
2022/11/07 06:11:11;;;;;;;1999.90;999.90;;;9.30;99.90;;;;;;5017549;28;20126;-79
2022/11/07 06:13:37;;;;;;;1999.90;999.90;;;9.50;99.90;;;;;;5019949;28;20030;-79
2022/11/07 06:16:03;;;;;;;1999.90;999.90;;;9.50;99.90;;;;;;5019556;28;20034;-79
2022/11/07 06:18:28;;;;;;;1999.90;999.90;;;9.50;99.90;;;;;;5018255;28;20058;-79
2022/11/07 06:20:54;;;;;;;1999.90;999.90;;;9.40;99.90;;;;;;5019781;28;20038;-79
2022/11/07 06:23:20;;;;;;;1999.90;999.90;;;9.40;99.90;;;;;;5019007;28;20030;-79
2022/11/07 06:25:46;;;;;;;1999.90;999.90;;;9.60;99.90;;;;;;5019822;28;20034;-78
2022/11/07 06:28:13;;;;;;;1999.90;999.90;;;9.80;99.90;;;;;;5020499;28;20031;-78
2022/11/07 06:30:39;;;;;;;1999.90;999.90;;;9.80;99.90;;;;;;5019970;28;20039;-79
2022/11/07 06:33:10;;;;;;;1999.90;999.90;;;9.80;99.90;;;;;;5020546;28;20085;-79
2022/11/07 06:35:36;;;;;;;1999.90;999.90;;;9.70;99.90;;;;;;5021038;28;20030;-78
2022/11/07 06:38:03;;;;;;;1999.90;999.90;;;9.70;99.90;;;;;;5020984;28;20039;-79
2022/11/07 06:40:28;;;;;;;1999.90;999.90;;;9.60;99.90;;;;;;5021035;28;20047;-78
2022/11/07 06:42:54;;;;;;;1999.90;999.90;;;9.60;99.90;;;;;;5020986;28;20037;-79
2022/11/07 06:45:21;;;;;;;1999.90;999.90;;;9.70;99.90;;;;;;5021020;28;20038;-79
2022/11/07 06:47:46;;;;;;;1999.90;999.90;;;9.80;99.90;;;;;;5019816;28;20057;-79
2022/11/07 06:50:12;;;;;;;1999.90;999.90;;;9.90;99.90;;;;;;5026335;28;20066;-78
2022/11/07 06:52:37;;;;;;;1999.90;999.90;;;10.00;99.90;;;;;;5028601;28;20090;-81
2022/11/07 06:55:03;;;;;;;1999.90;999.90;;;10.10;99.90;;;;;;5019737;28;20113;-81
2022/11/07 06:57:29;;;;;;;1999.90;999.90;;;10.20;99.90;;;;;;5020893;28;20512;-80
2022/11/07 06:59:54;;;;;;;1999.90;999.90;;;10.20;99.90;;;;;;5017549;28;20038;-79
2022/11/07 07:02:20;;;;;;;1999.90;999.90;;;10.20;99.90;;;;;;5018890;28;20058;-79
2022/11/07 07:04:47;;;;;;;1999.90;999.90;;;10.40;99.90;;;;;;5020010;28;20039;-81
2022/11/07 07:07:13;;;;;;;1999.90;999.90;;;10.40;99.90;;;;;;5021260;28;20074;-81
2022/11/07 07:09:38;;;;;;;1999.90;999.90;;;10.40;99.90;;;;;;5019550;28;20070;-80
2022/11/07 07:12:04;;;;;;;1999.90;999.90;;;10.40;99.90;;;;;;5020412;28;20030;-81
2022/11/07 07:14:30;;;;;;;1999.90;999.90;;;10.50;99.90;;;;;;5019081;28;20129;-81
2022/11/07 07:16:57;;;;;;;1999.90;999.90;;;10.50;99.90;;;;;;5019179;28;20034;-80
2022/11/07 07:19:23;;;;;;;1999.90;999.90;;;10.60;99.90;;;;;;5020616;28;20534;-80
2022/11/07 07:21:49;;;;;;;1999.90;999.90;;;10.60;99.90;;;;;;5018776;28;20085;-81
2022/11/07 07:24:14;;;;;;;1999.90;999.90;;;10.60;99.90;;;;;;5021118;28;20408;-78
2022/11/07 07:26:40;;;;;;;1999.90;999.90;;;10.70;99.90;;;;;;5017634;28;20038;-78
2022/11/07 07:29:05;;;;;;;1999.90;999.90;;;10.70;99.90;;;;;;5018707;28;20054;-78
2022/11/07 07:31:31;;;;;;;1999.90;999.90;;;10.70;99.90;;;;;;5019828;28;20046;-81
2022/11/07 07:33:57;;;;;;;1999.90;999.90;;;10.80;99.90;;;;;;5018518;28;20030;-78
2022/11/07 07:36:23;;;;;;;1999.90;999.90;;;10.70;99.90;;;;;;5021173;28;20037;-79
2022/11/07 07:38:49;;;;;;;1999.90;999.90;;;10.70;99.90;;;;;;5021574;28;20090;-78
2022/11/07 07:41:16;;;;;;;1999.90;999.90;;;10.70;99.90;;;;;;5019510;28;20471;-80
2022/11/07 07:43:41;;;;;;;1999.90;999.90;;;10.80;99.90;;;;;;5020069;28;20038;-80
2022/11/07 07:46:07;;;;;;;1999.90;999.90;;;10.80;99.90;;;;;;5021678;28;20043;-79
2022/11/07 07:48:34;;;;;;;1999.90;999.90;;;10.90;99.90;;;;;;5022041;28;20025;-79
2022/11/07 07:50:59;;;;;;;1999.90;999.90;;;11.00;99.90;;;;;;5020474;28;20049;-80
2022/11/07 07:53:25;;;;;;;1999.90;999.90;;;11.20;99.90;;;;;;5019497;28;20053;-80
2022/11/07 07:55:56;;;;;;;1999.90;999.90;;;11.30;99.90;;;;;;5025235;28;20460;-80
2022/11/07 07:58:21;;;;;;;1999.90;999.90;;;11.40;99.90;;;;;;5027345;28;20026;-80
2022/11/07 08:00:57;;;;;;;1999.90;999.90;;;11.50;99.90;;;;;;5026843;28;20039;-80
2022/11/07 08:03:23;;;;;;;1999.90;999.90;;;11.60;99.90;;;;;;5020704;28;20037;-81
2022/11/07 08:05:54;;;;;;;1999.90;999.90;;;11.80;99.90;;;;;;5020915;28;20039;-80
2022/11/07 08:08:20;;;;;;;1999.90;999.90;;;12.00;99.90;;;;;;5021392;28;20062;-81
2022/11/07 08:10:52;;;;;;;1999.90;999.90;;;12.00;99.90;;;;;;5017951;28;20093;-82
2022/11/07 08:13:18;;;;;;;1999.90;999.90;;;12.20;99.90;;;;;;5022174;28;20053;-84
2022/11/07 08:15:43;;;;;;;1999.90;999.90;;;12.30;99.90;;;;;;5020242;28;20038;-81
2022/11/07 08:18:09;;;;;;;1999.90;999.90;;;12.40;99.90;;;;;;5022313;28;20038;-82
2022/11/07 08:20:34;;;;;;;1999.90;999.90;;;12.50;99.90;;;;;;5018861;28;20041;-82
2022/11/07 08:23:02;;;;;;;1999.90;999.90;;;12.70;99.90;;;;;;5022921;28;20037;-82
2022/11/07 08:25:27;;;;;;;1999.90;999.90;;;12.70;99.90;;;;;;5024128;28;20154;-81
2022/11/07 08:27:53;;;;;;;1999.90;999.90;;;12.70;99.90;;;;;;5022947;28;20473;-82
2022/11/07 08:30:19;;;;;;;1999.90;999.90;;;12.80;99.90;;;;;;5022266;28;20034;-82
2022/11/07 08:32:44;;;;;;;1999.90;999.90;;;12.80;99.90;;;;;;5023526;28;20041;-81
2022/11/07 08:35:10;;;;;;;1999.90;999.90;;;12.90;99.90;;;;;;5021369;28;20062;-80
2022/11/07 08:37:36;;;;;;;1999.90;999.90;;;12.90;99.90;;;;;;5022195;28;20686;-82
2022/11/07 08:40:02;;;;;;;1999.90;999.90;;;13.00;99.90;;;;;;5022524;28;20039;-82
2022/11/07 08:42:27;;;;;;;1999.90;999.90;;;12.90;99.90;;;;;;5018722;28;20031;-82
2022/11/07 08:44:53;;;;;;;1999.90;999.90;;;13.10;99.90;;;;;;5020207;28;20092;-84
2022/11/07 08:47:18;;;;;;;1999.90;999.90;;;13.20;99.90;;;;;;5019240;28;20065;-82
2022/11/07 08:49:44;;;;;;;1999.90;999.90;;;13.50;99.90;;;;;;5017298;28;20054;-82
2022/11/07 08:52:09;;;;;;;1999.90;999.90;;;13.60;99.90;;;;;;5018087;28;20034;-82
2022/11/07 08:54:35;;;;;;;1999.90;999.90;;;13.70;99.90;;;;;;5018773;28;20432;-80
2022/11/07 08:57:01;;;;;;;1999.90;999.90;;;13.70;99.90;;;;;;5018697;28;20680;-83
2022/11/07 08:59:28;;;;;;;1999.90;999.90;;;13.60;99.90;;;;;;5016651;28;20037;-83
2022/11/07 09:01:54;;;;;;;1999.90;999.90;;;13.50;99.90;;;;;;5019659;28;20038;-81
2022/11/07 09:04:19;;;;;;;1999.90;999.90;;;13.60;99.90;;;;;;5018631;28;20031;-82
2022/11/07 09:06:45;;;;;;;1999.90;999.90;;;13.50;99.90;;;;;;5020962;28;20047;-81
2022/11/07 09:09:10;;;;;;;1999.90;999.90;;;13.50;99.90;;;;;;5021343;28;20038;-80
2022/11/07 09:11:36;;;;;;;1999.90;999.90;;;13.50;99.90;;;;;;5018617;28;20037;-84
2022/11/07 09:14:02;;;;;;;1999.90;999.90;;;13.50;99.90;;;;;;5019096;28;20034;-81
2022/11/07 09:16:27;;;;;;;1999.90;999.90;;;13.60;99.90;;;;;;5020958;28;20030;-82
2022/11/07 09:18:53;;;;;;;1999.90;999.90;;;13.50;99.90;;;;;;5019179;28;20026;-82
2022/11/07 09:21:21;;;;;;;1999.90;999.90;;;13.50;99.90;;;;;;5017728;28;20882;-84
2022/11/07 09:23:47;;;;;;;1999.90;999.90;;;13.60;99.90;;;;;;5017806;28;20125;-85
2022/11/07 09:26:12;;;;;;;1999.90;999.90;;;13.80;99.90;;;;;;5017601;28;20097;-84
2022/11/07 09:28:38;;;;;;;1999.90;999.90;;;14.00;99.90;;;;;;5015829;28;20031;-83
2022/11/07 09:31:04;;;;;;;1999.90;999.90;;;14.30;99.90;;;;;;5015193;28;20038;-84
2022/11/07 09:33:31;;;;;;;1999.90;999.90;;;14.50;99.90;;;;;;5016979;28;20038;-83
2022/11/07 09:36:01;;;;;;;1999.90;999.90;;;14.70;99.90;;;;;;5016807;28;20555;-83
2022/11/07 09:38:27;;;;;;;1999.90;999.90;;;14.90;99.90;;;;;;5017298;28;20089;-85
2022/11/07 09:41:25;;;;;;;1999.90;999.90;;;14.90;99.90;;;;;;5015307;28;20041;-82
2022/11/07 09:44:05;;;;;;;1999.90;999.90;;;14.70;99.90;;;;;;5010947;28;20047;-82
2022/11/07 09:47:04;;;;;;;1999.90;999.90;;;14.70;99.90;;;;;;5018559;28;20065;-82
2022/11/07 09:50:00;;;;;;;1999.90;999.90;;;15.00;99.90;;;;;;5019252;28;20571;-80
2022/11/07 09:52:56;;;;;;;1999.90;999.90;;;15.00;99.90;;;;;;5018551;28;20042;-79
2022/11/07 09:55:25;;;;;;;1999.90;999.90;;;14.90;99.90;;;;;;5023086;28;20038;-79
2022/11/07 09:57:55;;;;;;;1999.90;999.90;;;14.90;99.90;;;;;;5022247;28;20054;-79
2022/11/07 10:00:24;;;;;;;1999.90;999.90;;;15.00;99.90;;;;;;5018585;28;20075;-79
2022/11/07 10:02:54;;;;;;;1999.90;999.90;;;15.10;99.90;;;;;;5022045;28;20041;-78
2022/11/07 10:05:38;;;;;;;1999.90;999.90;;;14.80;99.90;;;;;;5027084;28;20159;-78
2022/11/07 10:08:13;;;;;;;1999.90;999.90;;;14.90;99.90;;;;;;5033100;28;20037;-79
2022/11/07 10:10:51;;;;;;;1999.90;999.90;;;14.60;99.90;;;;;;5016284;28;20038;-77
2022/11/07 10:13:58;;;;;;;1999.90;999.90;;;14.70;99.90;;;;;;5016556;28;20096;-76
2022/11/07 10:16:29;;;;;;;1999.90;999.90;;;14.70;99.90;;;;;;5014866;28;20061;-75
2022/11/07 10:19:18;;;;;;;1999.90;999.90;;;14.70;99.90;;;;;;5013894;28;20039;-74
2022/11/07 10:22:05;;;;;;;1999.90;999.90;;;14.60;99.90;;;;;;5015877;28;20113;-76
2022/11/07 10:24:33;;;;;;;1999.90;999.90;;;14.70;99.90;;;;;;5015720;28;20030;-76
2022/11/07 10:27:01;;;;;;;1999.90;999.90;;;14.80;99.90;;;;;;5013633;28;20097;-76
2022/11/07 10:29:52;;;;;;;1999.90;999.90;;;15.10;99.90;;;;;;5016023;28;20050;-74
2022/11/07 10:32:30;;;;;;;1999.90;999.90;;;15.20;99.90;;;;;;5005796;28;20049;-75
2022/11/07 10:35:11;;;;;;;1999.90;999.90;;;15.20;99.90;;;;;;5014352;28;20509;-75
2022/11/07 10:37:37;;;;;;;1999.90;999.90;;;14.90;99.90;;;;;;5014969;28;20046;-73
2022/11/07 10:40:32;;;;;;;1999.90;999.90;;;14.90;99.90;;;;;;5014911;28;20034;-73
2022/11/07 10:42:59;;;;;;;1999.90;999.90;;;15.00;99.90;;;;;;5012338;28;20126;-74
2022/11/07 10:45:27;;;;;;;1999.90;999.90;;;15.10;99.90;;;;;;5014770;28;20058;-74
2022/11/07 10:48:03;;;;;;;1999.90;999.90;;;15.20;99.90;;;;;;5016388;28;20500;-79
2022/11/07 10:50:29;;;;;;;1999.90;999.90;;;15.10;99.90;;;;;;5014818;28;20030;-73
2022/11/07 10:53:08;;;;;;;1999.90;999.90;;;15.30;99.90;;;;;;5015049;28;20042;-73
2022/11/07 10:55:46;;;;;;;1999.90;999.90;;;15.20;99.90;;;;;;5013127;28;20050;-73
2022/11/07 10:58:22;;;;;;;1999.90;999.90;;;15.30;99.90;;;;;;5014741;28;20031;-73
2022/11/07 11:01:04;;;;;;;1999.90;999.90;;;15.40;99.90;;;;;;5014188;28;20042;-73
2022/11/07 11:03:33;;;;;;;1999.90;999.90;;;15.30;99.90;;;;;;5014643;28;20061;-73
2022/11/07 11:06:16;;;;;;;1999.90;999.90;;;15.20;99.90;;;;;;5014282;28;20031;-74
2022/11/07 11:08:42;;;;;;;1999.90;999.90;;;15.10;99.90;;;;;;5014790;28;20121;-74
2022/11/07 11:11:22;;;;;;;1999.90;999.90;;;15.00;99.90;;;;;;5013894;28;20496;-73
2022/11/07 11:13:48;;;;;;;1999.90;999.90;;;15.00;99.90;;;;;;5015154;28;20066;-74
2022/11/07 11:16:23;;;;;;;1999.90;999.90;;;15.10;99.90;;;;;;5014032;28;20046;-74
2022/11/07 11:18:50;;;;;;;1999.90;999.90;;;15.00;99.90;;;;;;5014191;28;20093;-75
2022/11/07 11:21:16;;;;;;;1999.90;999.90;;;14.90;99.90;;;;;;5014412;28;20035;-74
2022/11/07 11:23:43;;;;;;;1999.90;999.90;;;15.00;99.90;;;;;;5013947;28;20047;-74
2022/11/07 11:26:30;;;;;;;1999.90;999.90;;;14.90;99.90;;;;;;5014065;28;20484;-74
2022/11/07 11:29:09;;;;;;;1999.90;999.90;;;14.90;99.90;;;;;;5014442;28;20448;-74
2022/11/07 11:31:38;;;;;;;1999.90;999.90;;;14.80;99.90;;;;;;5012907;28;20194;-74
2022/11/07 11:34:20;;;;;;;1999.90;999.90;;;14.70;99.90;;;;;;5013989;28;20534;-74
2022/11/07 11:37:18;;;;;;;1999.90;999.90;;;14.70;99.90;;;;;;5014307;28;20043;-74
2022/11/07 11:39:49;;;;;;;1999.90;999.90;;;14.60;99.90;;;;;;5012767;28;20054;-74
2022/11/07 11:42:25;;;;;;;1999.90;999.90;;;14.80;99.90;;;;;;5012503;28;20577;-74
2022/11/07 11:44:54;;;;;;;1999.90;999.90;;;14.80;99.90;;;;;;5014180;28;20085;-74
2022/11/07 11:47:32;;;;;;;1999.90;999.90;;;15.00;99.90;;;;;;5014435;28;20085;-74
2022/11/07 11:50:18;;;;;;;1999.90;999.90;;;14.80;99.90;;;;;;5017805;28;20064;-74
2022/11/07 11:52:44;;;;;;;1999.90;999.90;;;14.80;99.90;;;;;;5017346;28;20038;-73
2022/11/07 11:55:15;;;;;;;1999.90;999.90;;;14.80;99.90;;;;;;5017113;28;20504;-73
2022/11/07 11:58:06;;;;;;;1999.90;999.90;;;14.90;99.90;;;;;;5017721;28;20031;-74
2022/11/07 12:00:37;;;;;;;1999.90;999.90;;;14.80;99.90;;;;;;5015235;28;20101;-74
2022/11/07 12:03:35;;;;;;;1999.90;999.90;;;14.70;99.90;;;;;;5017754;28;20038;-74
2022/11/07 12:06:14;;;;;;;1999.90;999.90;;;14.60;99.90;;;;;;4999041;28;20057;-75
2022/11/07 12:09:22;;;;;;;1999.90;999.90;;;14.60;99.90;;;;;;5001499;28;20031;-78
2022/11/07 12:11:53;;;;;;;1999.90;999.90;;;14.60;99.90;;;;;;5015490;28;20034;-78
2022/11/07 12:14:35;;;;;;;1999.90;999.90;;;14.60;99.90;;;;;;5015680;28;20073;-82
2022/11/07 12:17:16;;;;;;;1999.90;999.90;;;14.60;99.90;;;;;;5006499;28;20035;-79
2022/11/07 12:20:05;;;;;;;1999.90;999.90;;;14.60;99.90;;;;;;5003907;28;20038;-78
2022/11/07 12:22:57;;;;;;;1999.90;999.90;;;14.30;99.90;;;;;;4998507;28;20057;-78
2022/11/07 12:25:55;;;;;;;;;;;;;;;;;;;;;
2022/11/07 12:28:31;;;;;;;1999.90;999.90;;;14.10;99.90;;;;;;5009244;28;20039;-80
2022/11/07 12:31:15;;;;;;;1999.90;999.90;;;14.30;99.90;;;;;;5005580;28;20037;-76
2022/11/07 12:34:13;;;;;;;1999.90;999.90;;;14.60;99.90;;;;;;4996886;28;20027;-79
2022/11/07 12:37:05;;;;;;;1999.90;999.90;;;14.70;99.90;;;;;;5001342;28;20035;-80
2022/11/07 12:39:59;;;;;;;1999.90;999.90;;;15.00;99.90;;;;;;5012854;28;20082;-79
2022/11/07 12:42:36;;;;;;;1999.90;999.90;;;15.50;99.90;;;;;;5017064;28;20472;-80
2022/11/07 12:45:40;;;;;;;1999.90;999.90;;;15.90;99.90;;;;;;5015248;28;20030;-81
2022/11/07 12:48:22;;;;;;;1999.90;999.90;;;16.50;99.90;;;;;;4955039;28;20055;-81
2022/11/07 12:51:03;;;;;;;1999.90;999.90;;;16.50;99.90;;;;;;5009203;28;20046;-79
2022/11/07 12:53:36;;;;;;;1999.90;999.90;;;16.30;99.90;;;;;;5021729;28;20042;-82
2022/11/07 12:56:10;;;;;;;1999.90;999.90;;;16.00;99.90;;;;;;5006690;28;20070;-79
2022/11/07 12:58:38;;;;;;;1999.90;999.90;;;15.90;99.90;;;;;;5000106;28;20067;-80
2022/11/07 13:01:26;;;;;;;1999.90;999.90;;;15.90;99.90;;;;;;5002060;28;20042;-80
2022/11/07 13:04:03;;;;;;;1999.90;999.90;;;16.10;99.90;;;;;;4999875;28;20063;-80
2022/11/07 13:06:54;;;;;;;1999.90;999.90;;;16.20;99.90;;;;;;5000655;28;20121;-79
2022/11/07 13:09:23;;;;;;;1999.90;999.90;;;16.50;99.90;;;;;;5000290;28;20039;-79
2022/11/07 13:11:56;;;;;;;1999.90;999.90;;;16.70;99.90;;;;;;5010343;28;20043;-80
2022/11/07 13:14:24;;;;;;;1999.90;999.90;;;16.60;99.90;;;;;;5003919;28;20045;-81
2022/11/07 13:16:53;;;;;;;1999.90;999.90;;;16.50;99.90;;;;;;5000375;28;20035;-81
2022/11/07 13:19:27;;;;;;;1999.90;999.90;;;16.50;99.90;;;;;;5001487;28;20073;-82
2022/11/07 13:22:05;;;;;;;1999.90;999.90;;;16.20;99.90;;;;;;5001470;28;20050;-82
2022/11/07 13:24:32;;;;;;;1999.90;999.90;;;16.10;99.90;;;;;;5004789;28;20504;-84
2022/11/07 13:26:58;;;;;;;1999.90;999.90;;;16.30;99.90;;;;;;5025290;28;20038;-81
2022/11/07 13:29:35;;;;;;;1999.90;999.90;;;16.30;99.90;;;;;;5033159;28;20018;-81
2022/11/07 13:32:14;;;;;;;1999.90;999.90;;;16.20;99.90;;;;;;5020755;28;20034;-79
2022/11/07 13:35:01;;;;;;;1999.90;999.90;;;16.10;99.90;;;;;;5017439;28;20054;-85
2022/11/07 13:37:34;;;;;;;1999.90;999.90;;;16.10;99.90;;;;;;5006750;28;20043;-81
2022/11/07 13:40:19;;;;;;;1999.90;999.90;;;16.00;99.90;;;;;;4997907;28;20039;-81
2022/11/07 13:42:46;;;;;;;1999.90;999.90;;;16.00;99.90;;;;;;4999384;28;20034;-81
2022/11/07 13:45:32;;;;;;;1999.90;999.90;;;16.10;99.90;;;;;;4998487;28;20031;-81
2022/11/07 13:48:02;;;;;;;1999.90;999.90;;;16.10;99.90;;;;;;4998755;28;20101;-81
2022/11/07 13:50:39;;;;;;;1999.90;999.90;;;16.10;99.90;;;;;;4998539;28;20118;-81
2022/11/07 13:53:13;;;;;;;1999.90;999.90;;;16.10;99.90;;;;;;4996589;28;20390;-81
2022/11/07 13:56:09;;;;;;;1999.90;999.90;;;16.20;99.90;;;;;;4998365;28;20097;-81
2022/11/07 13:58:37;;;;;;;1999.90;999.90;;;16.10;99.90;;;;;;4997966;28;20031;-81
2022/11/07 14:01:11;;;;;;;1999.90;999.90;;;16.10;99.90;;;;;;4997812;28;20039;-81
2022/11/07 14:03:38;;;;;;;1999.90;999.90;;;16.00;99.90;;;;;;4998104;28;20085;-81
2022/11/07 14:06:05;;;;;;;1999.90;999.90;;;15.80;99.90;;;;;;4998489;28;20798;-81
2022/11/07 14:08:39;;;;;;;1999.90;999.90;;;15.70;99.90;;;;;;4999165;28;20479;-81
2022/11/07 14:11:18;;;;;;;1999.90;999.90;;;15.60;99.90;;;;;;4996876;28;20046;-81
2022/11/07 14:13:47;;;;;;;1999.90;999.90;;;15.60;99.90;;;;;;5002655;28;20058;-81
2022/11/07 14:16:25;;;;;;;1999.90;999.90;;;15.50;99.90;;;;;;4998619;28;20087;-81
2022/11/07 14:19:14;;;;;;;1999.90;999.90;;;15.50;99.90;;;;;;4997184;28;20037;-79
2022/11/07 14:21:44;;;;;;;1999.90;999.90;;;15.50;99.90;;;;;;4997875;28;20412;-80
2022/11/07 14:24:26;;;;;;;1999.90;999.90;;;15.40;99.90;;;;;;5012623;28;20030;-79
2022/11/07 14:27:00;;;;;;;1999.90;999.90;;;15.30;99.90;;;;;;5019311;28;20400;-81
2022/11/07 14:29:26;;;;;;;1999.90;999.90;;;15.30;99.90;;;;;;5019348;28;20054;-80
2022/11/07 14:31:52;;;;;;;1999.90;999.90;;;15.20;99.90;;;;;;5018519;28;20093;-82
2022/11/07 14:34:20;;;;;;;1999.90;999.90;;;15.20;99.90;;;;;;5010618;28;20062;-83
2022/11/07 14:36:51;;;;;;;1999.90;999.90;;;15.10;99.90;;;;;;5018242;28;20049;-79
2022/11/07 14:39:17;;;;;;;1999.90;999.90;;;15.00;99.90;;;;;;5016843;28;20058;-81
2022/11/07 14:41:44;;;;;;;1999.90;999.90;;;15.00;99.90;;;;;;5019701;28;20045;-81
2022/11/07 14:44:16;;;;;;;1999.90;999.90;;;15.10;99.90;;;;;;5014558;28;20042;-81
2022/11/07 14:46:43;;;;;;;1999.90;999.90;;;15.00;99.90;;;;;;5007925;28;20043;-82
2022/11/07 14:49:22;;;;;;;1999.90;999.90;;;15.10;99.90;;;;;;5004004;28;20119;-82
2022/11/07 14:51:48;;;;;;;1999.90;999.90;;;15.10;99.90;;;;;;4998541;28;20121;-80
2022/11/07 14:54:20;;;;;;;1999.90;999.90;;;15.00;99.90;;;;;;4996553;28;20113;-81
2022/11/07 14:56:51;;;;;;;1999.90;999.90;;;15.00;99.90;;;;;;4997726;28;20039;-80
2022/11/07 14:59:25;;;;;;;1999.90;999.90;;;14.80;99.90;;;;;;4998937;28;20034;-81
2022/11/07 15:02:01;;;;;;;1999.90;999.90;;;14.80;99.90;;;;;;4997186;28;20054;-82
2022/11/07 15:04:46;;;;;;;1999.90;999.90;;;14.70;99.90;;;;;;4996363;28;20031;-81
2022/11/07 15:07:25;;;;;;;1999.90;999.90;;;14.50;99.90;;;;;;4998058;28;20131;-81
2022/11/07 15:09:53;;;;;;;1999.90;999.90;;;14.40;99.90;;;;;;4998695;28;20039;-82
2022/11/07 15:12:24;;;;;;;1999.90;999.90;;;14.40;99.90;;;;;;4995074;28;20022;-79
2022/11/07 15:15:34;;;;;;;1999.90;999.90;;;14.30;99.90;;;;;;4997524;28;20745;-79
2022/11/07 15:18:03;;;;;;;1999.90;999.90;;;14.20;99.90;;;;;;4956249;28;20383;-80
2022/11/07 15:20:31;;;;;;;1999.90;999.90;;;14.20;99.90;;;;;;4955575;28;20119;-80
2022/11/07 15:23:26;;;;;;;1999.90;999.90;;;14.10;99.90;;;;;;4981863;28;20061;-80
2022/11/07 15:26:05;;;;;;;1999.90;999.90;;;14.00;99.90;;;;;;4999911;28;20568;-80
2022/11/07 15:28:46;;;;;;;1999.90;999.90;;;14.00;99.90;;;;;;5001956;28;20764;-80
2022/11/07 15:31:20;;;;;;;1999.90;999.90;;;13.90;99.90;;;;;;5001193;28;20039;-80
2022/11/07 15:33:46;;;;;;;1999.90;999.90;;;13.80;99.90;;;;;;5000984;28;20092;-80
2022/11/07 15:36:13;;;;;;;1999.90;999.90;;;13.70;99.90;;;;;;5000192;28;20493;-79
2022/11/07 15:38:39;;;;;;;1999.90;999.90;;;13.70;99.90;;;;;;4998385;28;21236;-79
2022/11/07 15:41:04;;;;;;;1999.90;999.90;;;13.60;99.90;;;;;;4998331;28;20126;-79
2022/11/07 15:43:30;;;;;;;1999.90;999.90;;;13.50;99.90;;;;;;4996787;28;20031;-79
2022/11/07 15:45:56;;;;;;;1999.90;999.90;;;13.50;99.90;;;;;;4998094;28;20041;-80
2022/11/07 15:48:28;;;;;;;1999.90;999.90;;;13.40;99.90;;;;;;4998203;28;20047;-79
2022/11/07 15:50:53;;;;;;;1999.90;999.90;;;13.30;99.90;;;;;;4998124;28;20051;-79
2022/11/07 15:53:21;;;;;;;1999.90;999.90;;;13.30;99.90;;;;;;4998143;28;20059;-79
2022/11/07 15:55:51;;;;;;;1999.90;999.90;;;13.20;99.90;;;;;;4997294;28;20049;-78
2022/11/07 15:58:19;;;;;;;1999.90;999.90;;;13.10;99.90;;;;;;4997931;28;20058;-79
2022/11/07 16:00:45;;;;;;;1999.90;999.90;;;13.10;99.90;;;;;;4998028;28;20043;-79
2022/11/07 16:03:15;;;;;;;1999.90;999.90;;;13.00;99.90;;;;;;4997655;28;20042;-79
2022/11/07 16:05:43;;;;;;;1999.90;999.90;;;13.00;99.90;;;;;;4997640;28;20417;-79
2022/11/07 16:08:15;;;;;;;1999.90;999.90;;;12.90;99.90;;;;;;4997913;28;20034;-79
2022/11/07 16:10:44;;;;;;;1999.90;999.90;;;12.90;99.90;;;;;;4999889;28;20097;-80
2022/11/07 16:13:10;;;;;;;1999.90;999.90;;;12.80;99.90;;;;;;4996719;28;20042;-79
2022/11/07 16:15:36;;;;;;;1999.90;999.90;;;12.80;99.90;;;;;;4998491;28;20066;-78
2022/11/07 16:18:01;;;;;;;1999.90;999.90;;;12.70;99.90;;;;;;5017573;28;20035;-78
2022/11/07 16:20:29;;;;;;;1999.90;999.90;;;12.70;99.90;;;;;;5012291;28;20129;-77
2022/11/07 16:22:54;;;;;;;1999.90;999.90;;;12.60;99.90;;;;;;5015797;28;20050;-80
2022/11/07 16:25:23;;;;;;;1999.90;999.90;;;12.60;99.90;;;;;;5016788;28;20034;-79
2022/11/07 16:27:54;;;;;;;1999.90;999.90;;;12.60;99.90;;;;;;5021301;28;20815;-83
2022/11/07 16:30:20;;;;;;;1999.90;999.90;;;12.50;99.90;;;;;;5021832;28;20034;-84
2022/11/07 16:32:47;;;;;;;1999.90;999.90;;;12.50;99.90;;;;;;5004879;28;20101;-81
2022/11/07 16:35:13;;;;;;;1999.90;999.90;;;12.50;99.90;;;;;;4999585;28;20026;-82
2022/11/07 16:37:38;;;;;;;1999.90;999.90;;;12.40;99.90;;;;;;5002354;28;20489;-84
2022/11/07 16:40:07;;;;;;;1999.90;999.90;;;12.30;99.90;;;;;;5000934;28;20039;-76
2022/11/07 16:42:36;;;;;;;1999.90;999.90;;;12.30;99.90;;;;;;5012357;28;20519;-82
2022/11/07 16:45:03;;;;;;;1999.90;999.90;;;12.30;99.90;;;;;;4997015;28;20476;-80
2022/11/07 16:47:30;;;;;;;1999.90;999.90;;;12.20;99.90;;;;;;4999055;28;20055;-80
2022/11/07 16:49:56;;;;;;;1999.90;999.90;;;12.10;99.90;;;;;;4998592;28;20038;-78
2022/11/07 16:52:24;;;;;;;1999.90;999.90;;;12.10;99.90;;;;;;4997182;28;20516;-79
2022/11/07 16:54:49;;;;;;;1999.90;999.90;;;12.00;99.90;;;;;;4996753;28;20771;-79
2022/11/07 16:57:17;;;;;;;1999.90;999.90;;;11.80;99.90;;;;;;4996870;28;20477;-77
2022/11/07 16:59:43;;;;;;;1999.90;999.90;;;11.80;99.90;;;;;;5014197;28;20041;-78
2022/11/07 17:02:35;;;;;;;1999.90;999.90;;;11.60;99.90;;;;;;5017812;28;20070;-82
2022/11/07 17:05:00;;;;;;;1999.90;999.90;;;11.50;99.90;;;;;;5015089;28;20042;-79
2022/11/07 17:07:37;;;;;;;1999.90;999.90;;;11.50;99.90;;;;;;5019448;28;20446;-80
2022/11/07 17:10:03;;;;;;;1999.90;999.90;;;11.40;99.90;;;;;;5018306;28;20026;-82
2022/11/07 17:12:29;;;;;;;1999.90;999.90;;;11.40;99.90;;;;;;5019617;28;20049;-79
2022/11/07 17:14:54;;;;;;;1999.90;999.90;;;11.40;99.90;;;;;;5020149;28;20042;-79
2022/11/07 17:17:21;;;;;;;1999.90;999.90;;;11.40;99.90;;;;;;5008319;28;20549;-80
2022/11/07 17:19:46;;;;;;;1999.90;999.90;;;11.50;99.90;;;;;;4998862;28;20035;-77
2022/11/07 17:22:13;;;;;;;1999.90;999.90;;;11.50;99.90;;;;;;4999328;28;20046;-79
2022/11/07 17:24:41;;;;;;;1999.90;999.90;;;11.50;99.90;;;;;;4999022;28;20039;-77